createdAt,value
2023-05-16T00:01:21.797Z,3.90
2023-05-16T00:11:21.838Z,4.70
2023-05-16T00:21:23.758Z,4.70
2023-05-16T00:31:22.231Z,6.60
2023-05-16T00:41:22.476Z,8.20
2023-05-16T00:51:22.655Z,8.40
2023-05-16T01:01:22.879Z,8.10
2023-05-16T01:11:23.046Z,7.90
2023-05-16T01:21:23.251Z,7.80
2023-05-16T01:31:23.596Z,7.30
2023-05-16T01:41:23.629Z,7.60
2023-05-16T01:51:23.824Z,7.60
2023-05-16T02:01:24.188Z,7.20
2023-05-16T02:11:24.219Z,7.70
2023-05-16T02:21:24.255Z,9.00
2023-05-16T02:31:24.561Z,7.90
2023-05-16T02:41:24.552Z,8.40
2023-05-16T02:51:24.707Z,8.20
2023-05-16T03:01:24.993Z,9.80
2023-05-16T03:11:25.013Z,8.40
2023-05-16T03:21:25.211Z,8.80
2023-05-16T03:31:25.491Z,9.60
2023-05-16T03:41:25.399Z,7.70
2023-05-16T03:51:25.571Z,8.50
2023-05-16T04:01:25.737Z,8.40
2023-05-16T04:11:25.892Z,9.50
2023-05-16T04:21:26.057Z,8.80
2023-05-16T04:31:26.243Z,8.20
2023-05-16T04:41:26.455Z,8.60
2023-05-16T04:51:26.621Z,9.70
2023-05-16T05:01:26.776Z,10.40
2023-05-16T05:11:26.913Z,7.40
2023-05-16T05:21:27.077Z,6.10
2023-05-16T05:31:27.245Z,7.80
2023-05-16T05:41:27.382Z,8.80
2023-05-16T05:51:27.534Z,10.00
2023-05-16T06:01:27.729Z,7.70
2023-05-16T06:11:27.888Z,6.50
2023-05-16T06:21:28.064Z,6.70
2023-05-16T06:31:28.242Z,8.30
2023-05-16T06:41:28.398Z,8.50
2023-05-16T06:51:28.576Z,6.60
2023-05-16T07:01:28.764Z,6.90
2023-05-16T07:11:28.886Z,6.00
2023-05-16T07:21:29.046Z,5.40
2023-05-16T07:31:29.352Z,5.30
2023-05-16T07:41:29.458Z,5.90
2023-05-16T07:51:29.627Z,6.90
2023-05-16T08:01:29.803Z,8.30
2023-05-16T08:11:29.975Z,7.00
2023-05-16T08:21:30.136Z,8.90
2023-05-16T08:31:30.360Z,9.60
2023-05-16T08:41:30.504Z,11.30
2023-05-16T08:51:30.776Z,12.90
2023-05-16T09:01:31.033Z,16.70
2023-05-16T09:11:31.177Z,19.70
2023-05-16T09:21:31.348Z,17.80
2023-05-16T09:31:31.529Z,20.30
2023-05-16T09:41:31.673Z,24.90
2023-05-16T09:51:31.834Z,26.00
2023-05-16T10:01:32.022Z,27.00
2023-05-16T10:11:32.179Z,29.30
2023-05-16T10:21:32.349Z,30.00
2023-05-16T10:31:32.569Z,25.60
2023-05-16T10:41:32.685Z,28.30
2023-05-16T10:51:32.861Z,26.80
2023-05-16T11:01:33.063Z,24.30
2023-05-16T11:11:33.208Z,22.50
2023-05-16T11:21:33.376Z,23.80
2023-05-16T11:31:33.581Z,24.30
2023-05-16T11:41:33.768Z,23.10
2023-05-16T11:51:33.918Z,20.60
2023-05-16T12:01:34.253Z,24.20
2023-05-16T12:11:34.203Z,23.50
2023-05-16T12:21:34.368Z,29.10
2023-05-16T12:31:34.571Z,30.20
2023-05-16T12:41:34.692Z,38.90
2023-05-16T12:51:35.701Z,31.60
2023-05-16T13:01:35.179Z,36.80
2023-05-16T13:11:35.204Z,28.00
2023-05-16T13:21:35.580Z,26.20
2023-05-16T13:31:35.732Z,30.70
2023-05-16T13:41:35.710Z,31.10
2023-05-16T13:51:35.886Z,28.40
2023-05-16T14:01:36.096Z,28.00
2023-05-16T14:11:36.273Z,26.10
2023-05-16T14:21:36.498Z,29.60
2023-05-16T14:31:37.078Z,26.70
2023-05-16T14:41:36.946Z,25.10
2023-05-16T14:51:37.282Z,28.90
2023-05-16T15:01:37.567Z,20.00
2023-05-16T15:11:37.565Z,20.80
2023-05-16T15:21:37.802Z,25.50
2023-05-16T15:31:38.023Z,22.60
2023-05-16T15:42:01.194Z,24.50
2023-05-16T15:51:43.110Z,25.10
2023-05-16T16:01:38.636Z,11.30
2023-05-16T16:11:38.832Z,14.60
2023-05-16T16:21:39.120Z,34.10
2023-05-16T16:31:39.236Z,23.20
2023-05-16T16:41:39.350Z,17.00
2023-05-16T16:51:39.465Z,18.30
2023-05-16T17:01:39.711Z,19.40
2023-05-16T17:11:44.406Z,23.90
2023-05-16T17:21:39.714Z,23.60
2023-05-16T17:31:39.815Z,23.70
2023-05-16T17:41:40.896Z,29.30
2023-05-16T17:51:40.024Z,32.30
2023-05-16T18:01:40.208Z,30.90
2023-05-16T18:11:40.417Z,20.70
2023-05-16T18:21:40.476Z,19.50
2023-05-16T18:31:40.603Z,21.50
2023-05-16T18:41:40.706Z,21.50
2023-05-16T18:51:40.938Z,17.10
2023-05-16T19:01:41.187Z,17.50
2023-05-16T19:11:44.168Z,21.00
2023-05-16T19:21:41.577Z,21.60
2023-05-16T19:31:41.790Z,54.90
2023-05-16T19:41:41.997Z,63.00
2023-05-16T19:51:42.495Z,30.90
2023-05-16T20:01:42.257Z,43.50
2023-05-16T20:11:42.388Z,32.20
2023-05-16T20:21:42.447Z,20.80
2023-05-16T20:31:43.292Z,26.20
2023-05-16T20:41:42.752Z,13.20
2023-05-16T20:51:42.891Z,9.50
2023-05-16T21:01:42.600Z,8.30
2023-05-16T21:11:42.789Z,7.00
2023-05-16T21:21:43.009Z,9.10
2023-05-16T21:31:43.195Z,9.50
2023-05-16T21:41:43.400Z,7.00
2023-05-16T21:51:43.587Z,5.80
2023-05-16T22:01:43.824Z,8.00
2023-05-16T22:11:44.100Z,5.90
2023-05-16T22:21:44.107Z,11.70
2023-05-16T22:31:44.371Z,7.80
2023-05-16T22:41:44.587Z,6.50
2023-05-16T22:51:44.730Z,7.20
2023-05-16T23:01:44.723Z,15.30
2023-05-16T23:11:44.945Z,6.50
2023-05-16T23:21:45.164Z,7.10
2023-05-16T23:31:45.442Z,7.80
2023-05-16T23:41:45.628Z,7.80
